createdAt,value
2018-05-18T03:52:45.937Z,31.70
2018-05-18T03:55:14.101Z,32.63
2018-05-18T03:57:42.274Z,31.77
2018-05-18T04:00:10.450Z,30.23
2018-05-18T04:02:50.367Z,29.90
2018-05-18T04:05:30.318Z,28.30
2018-05-18T04:08:11.703Z,28.10
2018-05-18T04:10:46.716Z,29.10
2018-05-18T04:13:15.561Z,28.80
2018-05-18T04:15:43.729Z,28.30
2018-05-18T04:18:11.894Z,29.42
2018-05-18T04:20:40.112Z,27.62
2018-05-18T04:23:22.587Z,26.57
2018-05-18T04:25:50.757Z,27.87
2018-05-18T04:28:18.935Z,29.47
2018-05-18T04:30:47.128Z,27.40
2018-05-18T04:33:15.305Z,26.10
2018-05-18T04:35:43.487Z,28.27
2018-05-18T04:38:13.850Z,27.98
2018-05-18T04:40:42.030Z,25.73
2018-05-18T04:43:10.810Z,26.67
2018-05-18T04:45:39.006Z,25.85
2018-05-18T04:48:07.209Z,26.42
2018-05-18T04:50:35.393Z,26.43
2018-05-18T04:53:03.567Z,26.60
2018-05-18T04:55:32.796Z,26.60
2018-05-18T04:58:00.958Z,26.90
2018-05-18T05:00:29.113Z,24.63
2018-05-18T05:02:57.287Z,26.40
2018-05-18T05:05:25.463Z,26.43
2018-05-18T05:07:53.656Z,24.53
2018-05-18T05:10:21.822Z,24.73
2018-05-18T05:12:50.001Z,24.97
2018-05-18T05:15:18.188Z,24.40
2018-05-18T05:17:46.414Z,24.50
2018-05-18T05:20:14.592Z,25.75
2018-05-18T05:22:42.775Z,25.20
2018-05-18T05:25:11.849Z,24.77
2018-05-18T05:27:40.060Z,24.67
2018-05-18T05:30:08.243Z,22.70
2018-05-18T05:32:38.357Z,23.97
2018-05-18T05:35:06.579Z,23.40
2018-05-18T05:37:34.777Z,24.80
2018-05-18T05:40:03.288Z,24.33
2018-05-18T05:42:31.833Z,23.10
2018-05-18T05:45:00.011Z,25.20
2018-05-18T05:47:28.282Z,22.63
2018-05-18T05:49:56.735Z,22.90
2018-05-18T05:52:24.898Z,25.20
2018-05-18T05:54:53.048Z,24.17
2018-05-18T05:57:21.569Z,22.20
2018-05-18T05:59:49.710Z,22.70
2018-05-18T06:02:18.029Z,25.47
2018-05-18T06:04:46.252Z,24.30
2018-05-18T06:07:14.671Z,22.30
2018-05-18T06:09:42.900Z,22.27
2018-05-18T06:12:11.382Z,23.07
2018-05-18T06:14:39.532Z,22.77
2018-05-18T06:17:07.693Z,22.30
2018-05-18T06:19:35.908Z,20.50
2018-05-18T06:22:04.019Z,21.20
2018-05-18T06:24:32.185Z,22.63
2018-05-18T06:27:00.341Z,22.00
2018-05-18T06:29:28.858Z,21.67
2018-05-18T06:31:57.090Z,21.03
2018-05-18T06:34:25.238Z,20.27
2018-05-18T06:36:53.388Z,20.80
2018-05-18T06:39:21.554Z,21.95
2018-05-18T06:41:49.753Z,20.67
2018-05-18T06:44:17.930Z,19.73
2018-05-18T06:46:46.452Z,20.40
2018-05-18T06:49:14.573Z,19.63
2018-05-18T06:51:42.738Z,20.02
2018-05-18T06:54:11.242Z,20.57
2018-05-18T06:56:39.567Z,19.80
2018-05-18T06:59:07.759Z,21.20
2018-05-18T07:01:35.919Z,20.20
2018-05-18T07:04:04.152Z,20.03
2018-05-18T07:06:32.283Z,21.10
2018-05-18T07:09:00.444Z,20.10
2018-05-18T07:11:28.610Z,21.00
2018-05-18T07:13:56.786Z,20.20
2018-05-18T07:16:24.977Z,21.10
2018-05-18T07:18:53.178Z,21.20
2018-05-18T07:21:21.339Z,19.60
2018-05-18T07:23:49.497Z,20.42
2018-05-18T07:26:17.661Z,20.30
2018-05-18T07:28:45.868Z,20.87
2018-05-18T07:31:24.357Z,18.02
2018-05-18T07:33:52.590Z,19.03
2018-05-18T07:36:20.763Z,18.15
2018-05-18T07:38:48.911Z,18.08
2018-05-18T07:41:24.032Z,17.77
2018-05-18T07:43:52.304Z,17.17
2018-05-18T07:46:20.433Z,16.27
2018-05-18T07:48:48.595Z,16.40
2018-05-18T07:51:16.789Z,15.85
2018-05-18T07:53:44.970Z,15.50
2018-05-18T07:56:15.518Z,17.80
2018-05-18T07:58:43.705Z,17.90
2018-05-18T08:01:12.355Z,16.17
2018-05-18T08:03:40.536Z,15.77
2018-05-18T08:06:16.093Z,15.68
2018-05-18T08:08:44.271Z,15.65
2018-05-18T08:11:12.425Z,15.47
2018-05-18T08:13:40.579Z,15.20
2018-05-18T08:16:10.091Z,16.08
2018-05-18T08:18:38.239Z,16.83
2018-05-18T08:21:06.704Z,15.60
2018-05-18T08:23:41.789Z,15.40
2018-05-18T08:26:10.286Z,17.87
2018-05-18T08:28:50.556Z,16.40
2018-05-18T08:31:18.843Z,17.20
2018-05-18T08:33:47.270Z,13.40
2018-05-18T08:36:15.433Z,12.33
2018-05-18T08:38:43.989Z,13.50
2018-05-18T08:41:12.158Z,14.03
2018-05-18T08:43:40.453Z,12.47
2018-05-18T08:46:08.602Z,14.90
2018-05-18T08:48:36.789Z,13.87
2018-05-18T08:51:05.238Z,14.00
2018-05-18T08:53:33.370Z,13.70
2018-05-18T08:56:01.840Z,11.70
2018-05-18T08:58:30.324Z,10.97
2018-05-18T09:00:58.472Z,9.57
2018-05-18T09:03:26.652Z,10.83
2018-05-18T09:05:55.037Z,9.40
2018-05-18T09:08:23.473Z,10.70
2018-05-18T09:10:51.860Z,8.70
2018-05-18T09:13:20.087Z,10.65
2018-05-18T09:15:48.550Z,10.70
2018-05-18T09:18:16.711Z,9.77
2018-05-18T09:20:45.151Z,9.80
2018-05-18T09:23:13.287Z,10.20
2018-05-18T09:25:41.616Z,10.87
2018-05-18T09:28:10.018Z,9.67
2018-05-18T09:30:38.590Z,9.00
2018-05-18T09:33:07.069Z,9.97
2018-05-18T09:35:35.540Z,8.60
2018-05-18T09:38:03.845Z,8.93
2018-05-18T09:40:32.003Z,9.20
2018-05-18T09:43:00.140Z,8.93
2018-05-18T09:45:28.338Z,8.17
2018-05-18T09:47:56.484Z,8.60
2018-05-18T09:50:24.633Z,7.90
2018-05-18T09:52:52.798Z,8.35
2018-05-18T09:55:21.145Z,8.18
2018-05-18T09:57:49.115Z,8.07
2018-05-18T10:00:17.272Z,9.07
2018-05-18T10:02:45.458Z,7.80
2018-05-18T10:05:13.619Z,9.47
2018-05-18T10:07:41.780Z,8.00
2018-05-18T10:10:10.778Z,8.57
2018-05-18T10:12:38.911Z,8.40
2018-05-18T10:15:07.083Z,8.43
2018-05-18T10:17:35.423Z,8.03
2018-05-18T10:20:03.631Z,8.40
2018-05-18T10:22:31.782Z,8.90
2018-05-18T10:24:59.956Z,8.00
2018-05-18T10:27:28.116Z,8.70
2018-05-18T10:29:56.289Z,8.07
2018-05-18T10:32:24.444Z,8.90
2018-05-18T10:34:52.601Z,8.07
2018-05-18T10:37:22.795Z,8.00
2018-05-18T10:39:50.949Z,7.80
2018-05-18T10:42:19.421Z,7.93
2018-05-18T10:44:47.580Z,7.23
2018-05-18T10:47:15.756Z,7.50
2018-05-18T10:49:43.907Z,6.90
2018-05-18T10:52:12.077Z,7.75
2018-05-18T10:54:40.276Z,8.10
2018-05-18T10:57:08.852Z,9.40
2018-05-18T10:59:37.760Z,8.90
2018-05-18T11:02:05.936Z,9.67
2018-05-18T11:04:34.420Z,8.97
2018-05-18T11:07:02.626Z,7.87
2018-05-18T11:09:31.095Z,7.17
2018-05-18T11:11:59.294Z,7.47
2018-05-18T11:14:27.450Z,7.30
2018-05-18T11:16:55.625Z,6.47
2018-05-18T11:19:24.141Z,7.33
2018-05-18T11:21:52.274Z,7.37
2018-05-18T11:24:20.448Z,7.35
2018-05-18T11:26:48.702Z,7.22
2018-05-18T11:29:17.168Z,7.80
2018-05-18T11:31:45.480Z,7.82
2018-05-18T11:34:13.734Z,7.95
2018-05-18T11:36:41.901Z,8.07
2018-05-18T11:39:10.313Z,7.27
2018-05-18T11:41:38.452Z,7.90
2018-05-18T11:44:06.643Z,7.30
2018-05-18T11:46:35.166Z,8.02
2018-05-18T11:49:03.319Z,7.77
2018-05-18T11:51:31.482Z,8.10
2018-05-18T11:54:00.036Z,7.20
2018-05-18T11:56:28.206Z,7.30
2018-05-18T11:58:56.516Z,7.40
2018-05-18T12:01:24.893Z,7.13
2018-05-18T12:03:53.045Z,6.65
2018-05-18T12:06:21.198Z,7.00
2018-05-18T12:08:49.365Z,7.50
2018-05-18T12:11:17.522Z,7.07
2018-05-18T12:13:45.906Z,6.90
2018-05-18T12:16:14.523Z,6.45
2018-05-18T12:18:42.661Z,7.00
2018-05-18T12:21:10.816Z,6.37
2018-05-18T12:23:38.991Z,6.95
2018-05-18T12:26:07.208Z,7.40
2018-05-18T12:28:36.252Z,6.78
2018-05-18T12:31:04.456Z,7.23
2018-05-18T12:33:33.266Z,6.03
2018-05-18T12:36:01.451Z,6.77
2018-05-18T12:38:29.607Z,6.60
2018-05-18T12:40:57.773Z,7.37
2018-05-18T12:43:25.916Z,7.67
2018-05-18T12:45:54.073Z,6.87
2018-05-18T12:48:22.232Z,7.10
2018-05-18T12:50:50.403Z,7.60
2018-05-18T12:53:18.549Z,6.62
2018-05-18T12:55:46.699Z,6.93
2018-05-18T12:58:14.851Z,7.77
2018-05-18T13:00:43.001Z,7.90
2018-05-18T13:03:11.158Z,6.20
2018-05-18T13:05:39.314Z,6.70
2018-05-18T13:08:07.572Z,7.65
2018-05-18T13:10:36.605Z,6.78
2018-05-18T13:13:04.825Z,6.20
2018-05-18T13:15:32.966Z,6.43
2018-05-18T13:18:01.127Z,6.00
2018-05-18T13:20:29.281Z,6.37
2018-05-18T13:22:57.459Z,6.60
2018-05-18T13:25:25.605Z,7.43
2018-05-18T13:27:53.755Z,6.50
2018-05-18T13:30:21.927Z,6.53
2018-05-18T13:32:50.071Z,5.97
2018-05-18T13:35:18.257Z,7.00
2018-05-18T13:37:46.398Z,6.53
2018-05-18T13:40:14.572Z,6.47
2018-05-18T13:42:42.733Z,6.35
2018-05-18T13:45:10.918Z,6.10
2018-05-18T13:47:39.078Z,6.03
2018-05-18T13:50:07.225Z,6.00
2018-05-18T13:52:35.384Z,6.13
2018-05-18T13:55:03.559Z,6.20
2018-05-18T13:57:31.711Z,6.10
2018-05-18T13:59:59.859Z,6.53
2018-05-18T14:02:28.037Z,6.03
2018-05-18T14:04:56.214Z,6.63
2018-05-18T14:07:24.382Z,6.55
2018-05-18T14:09:52.557Z,7.68
2018-05-18T14:12:20.730Z,6.50
2018-05-18T14:14:48.884Z,7.10
2018-05-18T14:17:24.219Z,6.47
2018-05-18T14:19:58.134Z,6.23
2018-05-18T14:22:26.295Z,6.47
2018-05-18T14:24:54.442Z,6.20
2018-05-18T14:27:22.827Z,6.70
2018-05-18T14:29:50.995Z,6.75
2018-05-18T14:32:19.159Z,6.50
2018-05-18T14:34:47.477Z,6.60
2018-05-18T14:37:15.637Z,5.90
2018-05-18T14:39:43.977Z,5.93
2018-05-18T14:42:12.544Z,5.60
2018-05-18T14:44:40.758Z,6.27
2018-05-18T14:47:09.294Z,5.80
2018-05-18T14:49:37.455Z,6.60
2018-05-18T14:52:06.065Z,6.30
2018-05-18T14:54:34.244Z,6.23
2018-05-18T14:57:02.654Z,6.30
2018-05-18T14:59:30.850Z,6.43
2018-05-18T15:01:59.330Z,6.00
2018-05-18T15:04:27.501Z,5.90
2018-05-18T15:06:55.845Z,6.20
2018-05-18T15:09:24.068Z,7.07
2018-05-18T15:11:52.590Z,6.00
2018-05-18T15:14:20.775Z,8.25
2018-05-18T15:16:49.182Z,7.87
2018-05-18T15:19:17.315Z,6.50
2018-05-18T15:21:45.505Z,6.05
2018-05-18T15:24:14.068Z,7.20
2018-05-18T15:26:42.205Z,6.70
2018-05-18T15:29:10.359Z,6.30
2018-05-18T15:31:39.689Z,7.40
2018-05-18T15:34:07.845Z,7.50
2018-05-18T15:36:36.476Z,6.93
2018-05-18T15:39:05.412Z,6.20
2018-05-18T15:41:33.950Z,6.23
2018-05-18T15:44:03.194Z,5.73
2018-05-18T15:46:31.756Z,5.13
2018-05-18T15:48:59.900Z,6.40
2018-05-18T15:51:28.595Z,5.87
2018-05-18T15:53:56.734Z,6.30
2018-05-18T15:56:25.214Z,5.37
2018-05-18T15:58:54.347Z,6.00
2018-05-18T16:01:22.901Z,6.40
2018-05-18T16:03:51.423Z,6.27
2018-05-18T16:06:19.616Z,7.33
2018-05-18T16:08:48.152Z,6.57
2018-05-18T16:11:16.318Z,6.55
2018-05-18T16:13:44.462Z,6.20
2018-05-18T16:16:12.972Z,6.60
2018-05-18T16:18:41.978Z,5.70
2018-05-18T16:21:10.264Z,5.93
2018-05-18T16:23:38.794Z,7.40
2018-05-18T16:26:06.939Z,6.23
2018-05-18T16:28:35.115Z,6.80
2018-05-18T16:31:03.291Z,5.20
2018-05-18T16:33:31.809Z,6.50
2018-05-18T16:36:00.433Z,6.20
2018-05-18T16:38:28.721Z,6.32
2018-05-18T16:40:56.886Z,7.70
2018-05-18T16:43:25.029Z,6.00
2018-05-18T16:45:53.236Z,7.80
2018-05-18T16:48:21.407Z,14.35
2018-05-18T16:50:49.900Z,23.83
2018-05-18T16:53:18.059Z,10.15
2018-05-18T16:55:46.251Z,8.38
2018-05-18T16:58:14.557Z,7.50
2018-05-18T17:00:42.697Z,7.00
2018-05-18T17:03:11.315Z,6.00
2018-05-18T17:05:39.453Z,7.20
2018-05-18T17:08:07.615Z,7.80
2018-05-18T17:10:35.821Z,6.30
2018-05-18T17:13:03.968Z,6.20
2018-05-18T17:15:32.267Z,6.50
2018-05-18T17:18:00.797Z,6.90
2018-05-18T17:20:28.948Z,6.27
2018-05-18T17:22:57.282Z,6.75
2018-05-18T17:25:25.860Z,7.10
2018-05-18T17:27:54.440Z,7.00
2018-05-18T17:30:22.607Z,6.10
2018-05-18T17:32:50.984Z,6.37
2018-05-18T17:35:19.534Z,6.07
2018-05-18T17:37:48.157Z,6.67
2018-05-18T17:40:16.309Z,7.23
2018-05-18T17:42:44.480Z,6.83
2018-05-18T17:45:12.669Z,7.80
2018-05-18T17:47:41.201Z,5.93
2018-05-18T17:50:09.654Z,7.43
2018-05-18T17:52:37.836Z,7.30
2018-05-18T17:55:06.202Z,6.67
2018-05-18T17:57:34.966Z,7.17
2018-05-18T18:00:03.117Z,6.93
2018-05-18T18:02:31.303Z,7.77
2018-05-18T18:04:59.461Z,6.77
2018-05-18T18:07:27.823Z,6.80
2018-05-18T18:09:55.971Z,7.47
2018-05-18T18:12:24.865Z,8.10
2018-05-18T18:14:53.038Z,7.53
2018-05-18T18:17:21.251Z,7.07
2018-05-18T18:19:49.556Z,7.80
2018-05-18T18:22:17.906Z,7.37
2018-05-18T18:24:46.536Z,7.17
2018-05-18T18:27:14.695Z,8.20
2018-05-18T18:29:43.281Z,7.60
2018-05-18T18:32:11.619Z,7.33
2018-05-18T18:34:40.253Z,8.67
2018-05-18T18:37:08.495Z,8.33
2018-05-18T18:39:37.314Z,8.67
2018-05-18T18:42:05.462Z,8.30
2018-05-18T18:44:33.725Z,10.10
2018-05-18T18:47:02.314Z,8.20
2018-05-18T18:49:30.466Z,7.87
2018-05-18T18:51:58.648Z,7.30
2018-05-18T18:54:26.853Z,7.70
2018-05-18T18:56:55.058Z,7.50
2018-05-18T18:59:23.540Z,7.87
2018-05-18T19:01:51.703Z,7.90
2018-05-18T19:04:20.101Z,8.57
2018-05-18T19:06:48.861Z,8.93
2018-05-18T19:09:17.006Z,10.40
2018-05-18T19:11:46.162Z,10.55
2018-05-18T19:14:14.817Z,9.40
2018-05-18T19:16:42.983Z,10.40
2018-05-18T19:19:11.789Z,11.13
2018-05-18T19:21:39.985Z,9.70
2018-05-18T19:24:08.217Z,9.98
2018-05-18T19:26:36.343Z,9.20
2018-05-18T19:29:04.759Z,9.07
2018-05-18T19:31:32.909Z,9.20
2018-05-18T19:34:01.074Z,9.07
2018-05-18T19:36:30.301Z,9.10
2018-05-18T19:39:00.252Z,9.60
2018-05-18T19:41:28.446Z,9.63
2018-05-18T19:43:56.596Z,9.45
2018-05-18T19:46:24.758Z,8.65
2018-05-18T19:48:52.925Z,9.25
2018-05-18T19:51:22.415Z,9.97
2018-05-18T19:53:50.588Z,8.70
2018-05-18T19:56:18.721Z,9.10
2018-05-18T19:58:46.876Z,8.80
2018-05-18T20:01:15.215Z,9.45
2018-05-18T20:03:43.397Z,9.20
2018-05-18T20:06:14.266Z,8.83
2018-05-18T20:08:45.846Z,9.50
2018-05-18T20:11:13.995Z,8.77
2018-05-18T20:13:42.169Z,8.90
2018-05-18T20:16:10.326Z,7.57
2018-05-18T20:18:38.495Z,9.20
2018-05-18T20:21:06.677Z,8.80
2018-05-18T20:23:34.818Z,8.10
2018-05-18T20:26:02.980Z,9.40
2018-05-18T20:28:31.149Z,9.07
2018-05-18T20:30:59.327Z,6.80
2018-05-18T20:33:27.465Z,8.40
2018-05-18T20:35:55.642Z,7.67
2018-05-18T20:38:23.780Z,7.60
2018-05-18T20:40:51.964Z,8.53
2018-05-18T20:43:20.164Z,8.57
2018-05-18T20:45:54.939Z,8.83
2018-05-18T20:48:23.124Z,8.25
2018-05-18T20:50:51.263Z,9.87
2018-05-18T20:53:19.445Z,8.83
2018-05-18T20:55:47.625Z,8.13
2018-05-18T20:58:15.803Z,8.00
2018-05-18T21:00:43.969Z,7.67
2018-05-18T21:03:12.124Z,7.43
2018-05-18T21:05:40.277Z,8.70
2018-05-18T21:08:08.439Z,8.27
2018-05-18T21:10:36.639Z,8.63
2018-05-18T21:13:04.782Z,8.50
2018-05-18T21:15:32.957Z,8.77
2018-05-18T21:18:01.111Z,9.07
2018-05-18T21:20:29.272Z,8.23
2018-05-18T21:22:57.445Z,9.13
2018-05-18T21:25:25.636Z,7.63
2018-05-18T21:27:53.803Z,7.60
2018-05-18T21:30:24.732Z,8.37
2018-05-18T21:32:52.875Z,8.40
2018-05-18T21:35:21.052Z,8.50
2018-05-18T21:37:49.208Z,8.80
2018-05-18T21:40:17.362Z,9.07
2018-05-18T21:42:45.539Z,8.50
2018-05-18T21:45:13.690Z,7.87
2018-05-18T21:47:41.857Z,9.35
2018-05-18T21:50:10.000Z,8.60
2018-05-18T21:52:38.157Z,8.90
2018-05-18T21:55:06.302Z,9.17
2018-05-18T21:57:34.475Z,9.53
2018-05-18T22:00:02.637Z,8.70
2018-05-18T22:02:30.791Z,8.50
2018-05-18T22:04:59.494Z,8.68
2018-05-18T22:07:27.672Z,8.63
2018-05-18T22:09:55.823Z,7.77
2018-05-18T22:12:23.971Z,8.13
2018-05-18T22:14:52.129Z,9.47
2018-05-18T22:17:20.313Z,9.20
2018-05-18T22:19:48.471Z,8.10
2018-05-18T22:22:16.608Z,8.30
2018-05-18T22:24:44.789Z,8.13
2018-05-18T22:27:16.575Z,8.00
2018-05-18T22:29:45.403Z,8.63
2018-05-18T22:32:13.631Z,8.43
2018-05-18T22:34:41.808Z,7.70
2018-05-18T22:37:10.357Z,9.38
2018-05-18T22:39:39.063Z,9.40
2018-05-18T22:42:07.224Z,9.47
2018-05-18T22:44:35.387Z,8.55
2018-05-18T22:47:03.551Z,9.07
2018-05-18T22:49:31.698Z,9.30
2018-05-18T22:51:59.877Z,9.27
2018-05-18T22:54:28.017Z,8.90
2018-05-18T22:56:56.175Z,8.37
2018-05-18T22:59:26.193Z,8.60
2018-05-18T23:01:54.361Z,8.77
2018-05-18T23:04:22.509Z,9.60
2018-05-18T23:06:50.676Z,9.10
2018-05-18T23:09:25.825Z,7.57
2018-05-18T23:11:53.985Z,8.47
2018-05-18T23:14:22.138Z,9.47
2018-05-18T23:16:50.274Z,8.30
2018-05-18T23:19:18.435Z,7.43
2018-05-18T23:21:46.589Z,8.55
2018-05-18T23:24:18.196Z,9.13
2018-05-18T23:26:46.347Z,8.40
2018-05-18T23:29:15.170Z,7.50
2018-05-18T23:31:43.385Z,9.00
2018-05-18T23:34:11.477Z,8.17
2018-05-18T23:36:39.644Z,8.02
2018-05-18T23:39:13.087Z,10.90
2018-05-18T23:41:41.239Z,9.90
2018-05-18T23:44:09.396Z,10.10
2018-05-18T23:46:37.562Z,10.55
2018-05-18T23:49:05.713Z,10.67
2018-05-18T23:51:33.919Z,9.53
2018-05-18T23:54:02.059Z,10.00
2018-05-18T23:56:30.578Z,9.90
2018-05-18T23:58:58.717Z,8.90
